createdAt,value
2018-09-20T00:00:23.035Z,5.23
2018-09-20T00:02:51.314Z,5.90
2018-09-20T00:05:19.597Z,4.53
2018-09-20T00:07:47.861Z,5.40
2018-09-20T00:10:16.142Z,5.30
2018-09-20T00:12:44.426Z,5.60
2018-09-20T00:15:12.709Z,4.30
2018-09-20T00:17:40.974Z,4.73
2018-09-20T00:20:09.337Z,4.87
2018-09-20T00:22:37.613Z,4.50
2018-09-20T00:25:06.149Z,5.30
2018-09-20T00:27:34.435Z,5.30
2018-09-20T00:30:02.726Z,5.47
2018-09-20T00:32:31.003Z,5.63
2018-09-20T00:34:59.290Z,5.40
2018-09-20T00:37:27.569Z,5.50
2018-09-20T00:39:55.845Z,5.33
2018-09-20T00:42:24.129Z,4.27
2018-09-20T00:44:52.410Z,5.20
2018-09-20T00:47:20.681Z,5.90
2018-09-20T00:49:48.949Z,5.60
2018-09-20T00:52:17.376Z,5.53
2018-09-20T00:54:45.660Z,5.00
2018-09-20T00:57:13.932Z,4.40
2018-09-20T00:59:42.235Z,5.40
2018-09-20T01:02:10.513Z,5.60
2018-09-20T01:04:38.779Z,6.13
2018-09-20T01:07:07.063Z,5.87
2018-09-20T01:09:35.353Z,5.10
2018-09-20T01:12:03.627Z,5.20
2018-09-20T01:14:31.938Z,5.50
2018-09-20T01:17:00.206Z,4.73
2018-09-20T01:19:28.482Z,5.00
2018-09-20T01:21:56.753Z,4.63
2018-09-20T01:24:25.096Z,5.47
2018-09-20T01:26:53.374Z,4.80
2018-09-20T01:29:21.646Z,4.90
2018-09-20T01:31:50.043Z,4.73
2018-09-20T01:34:18.319Z,5.03
2018-09-20T01:36:46.609Z,4.80
2018-09-20T01:39:15.870Z,5.23
2018-09-20T01:41:44.157Z,4.90
2018-09-20T01:44:13.138Z,4.83
2018-09-20T01:46:41.631Z,6.03
2018-09-20T01:49:10.313Z,5.10
2018-09-20T01:51:38.832Z,5.90
2018-09-20T01:54:07.146Z,6.50
2018-09-20T01:56:35.482Z,6.10
2018-09-20T01:59:03.783Z,6.63
2018-09-20T02:01:32.065Z,6.57
2018-09-20T02:04:00.354Z,7.60
2018-09-20T02:06:28.653Z,6.73
2018-09-20T02:08:56.919Z,6.93
2018-09-20T02:11:25.209Z,6.47
2018-09-20T02:13:53.594Z,6.17
2018-09-20T02:16:21.879Z,6.63
2018-09-20T02:18:50.159Z,5.20
2018-09-20T02:21:18.434Z,5.87
2018-09-20T02:23:46.711Z,6.37
2018-09-20T02:26:14.997Z,6.17
2018-09-20T02:28:43.308Z,5.67
2018-09-20T02:31:11.605Z,5.43
2018-09-20T02:33:39.890Z,6.00
2018-09-20T02:36:08.283Z,6.40
2018-09-20T02:38:36.612Z,5.70
2018-09-20T02:41:04.927Z,5.60
2018-09-20T02:43:33.263Z,5.60
2018-09-20T02:46:01.572Z,6.00
2018-09-20T02:48:30.100Z,5.40
2018-09-20T02:50:58.582Z,5.33
2018-09-20T02:53:26.855Z,5.33
2018-09-20T02:55:55.132Z,5.50
2018-09-20T02:58:23.426Z,5.60
2018-09-20T03:00:51.994Z,5.17
2018-09-20T03:03:20.317Z,4.20
2018-09-20T03:05:48.592Z,4.63
2018-09-20T03:08:16.869Z,5.90
2018-09-20T03:10:45.159Z,4.50
2018-09-20T03:13:13.458Z,3.93
2018-09-20T03:15:41.733Z,5.50
2018-09-20T03:18:10.018Z,5.53
2018-09-20T03:20:38.286Z,5.70
2018-09-20T03:23:06.574Z,6.17
2018-09-20T03:25:34.872Z,5.67
2018-09-20T03:28:03.158Z,5.27
2018-09-20T03:30:31.567Z,5.03
2018-09-20T03:32:59.840Z,5.93
2018-09-20T03:35:28.199Z,5.80
2018-09-20T03:37:56.490Z,4.97
2018-09-20T03:40:24.795Z,5.47
2018-09-20T03:42:53.066Z,5.90
2018-09-20T03:45:21.373Z,4.67
2018-09-20T03:47:49.660Z,5.13
2018-09-20T03:50:17.960Z,5.33
2018-09-20T03:52:46.246Z,4.57
2018-09-20T03:55:14.541Z,5.10
2018-09-20T03:57:42.819Z,5.30
2018-09-20T04:00:11.126Z,5.00
2018-09-20T04:02:39.427Z,5.00
2018-09-20T04:05:07.792Z,5.20
2018-09-20T04:07:36.137Z,5.20
2018-09-20T04:10:04.499Z,5.40
2018-09-20T04:12:32.827Z,5.27
2018-09-20T04:15:01.123Z,6.17
2018-09-20T04:17:29.424Z,6.27
2018-09-20T04:19:57.701Z,5.80
2018-09-20T04:22:25.988Z,6.37
2018-09-20T04:24:54.438Z,6.07
2018-09-20T04:27:22.932Z,5.33
2018-09-20T04:29:51.412Z,5.70
2018-09-20T04:32:19.928Z,6.60
2018-09-20T04:34:48.468Z,6.97
2018-09-20T04:37:16.901Z,7.30
2018-09-20T04:39:45.537Z,6.80
2018-09-20T04:42:14.003Z,6.13
2018-09-20T04:44:42.493Z,6.80
2018-09-20T04:47:11.021Z,5.80
2018-09-20T04:49:39.479Z,4.97
2018-09-20T04:52:08.061Z,5.60
2018-09-20T04:54:36.569Z,5.80
2018-09-20T04:57:06.407Z,6.53
2018-09-20T04:59:35.466Z,6.00
2018-09-20T05:02:04.041Z,6.40
2018-09-20T05:04:32.513Z,7.00
2018-09-20T05:07:01.090Z,6.60
2018-09-20T05:09:29.648Z,6.47
2018-09-20T05:11:58.179Z,6.17
2018-09-20T05:14:26.815Z,5.90
2018-09-20T05:16:55.395Z,5.23
2018-09-20T05:19:24.011Z,5.17
2018-09-20T05:21:52.724Z,5.53
2018-09-20T05:24:21.337Z,5.67
2018-09-20T05:26:50.035Z,5.67
2018-09-20T05:29:18.579Z,6.20
2018-09-20T05:31:47.112Z,6.23
2018-09-20T05:34:15.575Z,6.07
2018-09-20T05:36:44.121Z,5.57
2018-09-20T05:39:12.768Z,4.70
2018-09-20T05:41:41.421Z,4.10
2018-09-20T05:44:10.576Z,4.27
2018-09-20T05:46:39.483Z,4.50
2018-09-20T05:49:07.986Z,4.30
2018-09-20T05:51:36.257Z,3.90
2018-09-20T05:54:04.665Z,4.30
2018-09-20T05:56:32.938Z,4.20
2018-09-20T05:59:01.316Z,4.50
2018-09-20T06:01:29.577Z,4.30
2018-09-20T06:03:57.848Z,4.00
2018-09-20T06:06:26.152Z,3.90
2018-09-20T06:08:54.487Z,4.43
2018-09-20T06:11:22.868Z,4.10
2018-09-20T06:13:51.350Z,4.50
2018-09-20T06:16:19.663Z,4.47
2018-09-20T06:18:47.960Z,4.87
2018-09-20T06:21:16.243Z,5.50
2018-09-20T06:23:44.573Z,4.20
2018-09-20T06:26:13.127Z,4.80
2018-09-20T06:28:41.572Z,4.87
2018-09-20T06:31:09.892Z,4.67
2018-09-20T06:33:38.200Z,5.43
2018-09-20T06:36:06.547Z,4.33
2018-09-20T06:38:35.102Z,5.17
2018-09-20T06:41:03.585Z,4.90
2018-09-20T06:43:31.853Z,5.60
2018-09-20T06:46:00.167Z,4.70
2018-09-20T06:48:28.480Z,4.40
2018-09-20T06:50:56.804Z,4.67
2018-09-20T06:53:25.272Z,4.30
2018-09-20T06:55:53.591Z,4.43
2018-09-20T06:58:21.870Z,3.77
2018-09-20T07:00:50.254Z,4.67
2018-09-20T07:03:18.651Z,4.97
2018-09-20T07:06:02.773Z,4.30
2018-09-20T07:08:31.789Z,4.33
2018-09-20T07:11:00.079Z,6.90
2018-09-20T07:13:28.366Z,6.60
2018-09-20T07:15:57.082Z,7.30
2018-09-20T07:18:25.856Z,7.70
2018-09-20T07:20:54.176Z,7.43
2018-09-20T07:23:22.450Z,6.87
2018-09-20T07:25:50.778Z,5.57
2018-09-20T07:28:19.096Z,6.53
2018-09-20T07:30:47.474Z,6.53
2018-09-20T07:33:15.822Z,6.93
2018-09-20T07:35:44.299Z,7.13
2018-09-20T07:38:12.609Z,4.80
2018-09-20T07:40:40.906Z,4.10
2018-09-20T07:43:09.232Z,3.93
2018-09-20T07:45:37.699Z,4.40
2018-09-20T07:48:05.983Z,4.27
2018-09-20T07:50:34.347Z,3.50
2018-09-20T07:53:02.770Z,4.10
2018-09-20T07:55:31.062Z,4.13
2018-09-20T07:58:17.107Z,3.53
2018-09-20T08:00:46.044Z,4.00
2018-09-20T08:03:14.334Z,3.50
2018-09-20T08:05:42.622Z,4.23
2018-09-20T08:08:10.905Z,3.60
2018-09-20T08:10:39.328Z,3.87
2018-09-20T08:13:07.770Z,3.77
2018-09-20T08:15:36.042Z,3.63
2018-09-20T08:18:04.331Z,3.23
2018-09-20T08:20:32.610Z,3.77
2018-09-20T08:23:01.019Z,3.40
2018-09-20T08:25:29.302Z,3.73
2018-09-20T08:27:57.603Z,3.87
2018-09-20T08:30:25.921Z,3.67
2018-09-20T08:32:54.223Z,3.13
2018-09-20T08:35:22.594Z,3.10
2018-09-20T08:37:50.986Z,3.50
2018-09-20T08:40:19.198Z,3.33
2018-09-20T08:42:47.539Z,3.37
2018-09-20T08:45:15.918Z,3.40
2018-09-20T08:47:44.216Z,3.20
2018-09-20T08:50:12.490Z,3.20
2018-09-20T08:52:40.804Z,2.90
2018-09-20T08:55:09.097Z,3.70
2018-09-20T08:57:42.855Z,3.43
2018-09-20T09:00:11.139Z,3.20
2018-09-20T09:02:39.415Z,2.83
2018-09-20T09:05:07.759Z,3.60
2018-09-20T09:07:36.059Z,3.40
2018-09-20T09:10:04.408Z,2.97
2018-09-20T09:12:32.695Z,3.47
2018-09-20T09:15:00.991Z,3.13
2018-09-20T09:17:29.275Z,2.70
2018-09-20T09:19:57.810Z,3.10
2018-09-20T09:22:26.166Z,3.27
2018-09-20T09:24:54.771Z,2.90
2018-09-20T09:27:23.068Z,3.50
2018-09-20T09:29:51.618Z,3.17
2018-09-20T09:32:19.941Z,3.30
2018-09-20T09:34:48.306Z,2.90
2018-09-20T09:37:16.976Z,3.23
2018-09-20T09:39:45.276Z,2.90
2018-09-20T09:42:13.595Z,2.70
2018-09-20T09:44:41.905Z,3.20
2018-09-20T09:47:10.264Z,2.80
2018-09-20T09:49:38.590Z,3.17
2018-09-20T09:52:06.876Z,2.80
2018-09-20T09:54:35.201Z,3.03
2018-09-20T09:57:03.469Z,2.97
2018-09-20T09:59:31.778Z,2.83
2018-09-20T10:02:00.063Z,2.83
2018-09-20T10:04:28.342Z,2.60
2018-09-20T10:06:56.726Z,2.80
2018-09-20T10:09:24.998Z,2.67
2018-09-20T10:11:53.270Z,3.00
2018-09-20T10:14:21.563Z,2.90
2018-09-20T10:16:49.841Z,3.13
2018-09-20T10:19:18.143Z,2.73
2018-09-20T10:21:46.428Z,2.90
2018-09-20T10:24:14.723Z,2.80
2018-09-20T10:26:43.161Z,2.70
2018-09-20T10:29:11.530Z,2.57
2018-09-20T10:31:39.885Z,2.77
2018-09-20T10:34:08.205Z,2.90
2018-09-20T10:36:36.490Z,3.13
2018-09-20T10:39:07.703Z,2.80
2018-09-20T10:41:35.973Z,3.40
2018-09-20T10:44:04.285Z,3.00
2018-09-20T10:46:32.567Z,2.80
2018-09-20T10:49:00.867Z,3.03
2018-09-20T10:51:29.173Z,3.30
2018-09-20T10:53:57.455Z,2.70
2018-09-20T10:56:25.733Z,2.50
2018-09-20T10:58:54.042Z,3.57
2018-09-20T11:01:22.319Z,2.53
2018-09-20T11:03:50.672Z,3.00
2018-09-20T11:06:18.983Z,3.20
2018-09-20T11:08:47.349Z,2.97
2018-09-20T11:11:15.630Z,2.50
2018-09-20T11:13:43.944Z,2.60
2018-09-20T11:16:12.288Z,2.90
2018-09-20T11:18:40.610Z,2.90
2018-09-20T11:21:08.921Z,3.00
2018-09-20T11:23:37.407Z,2.80
2018-09-20T11:26:05.705Z,2.70
2018-09-20T11:28:33.998Z,2.90
2018-09-20T11:31:02.306Z,2.60
2018-09-20T11:33:30.592Z,2.70
2018-09-20T11:35:58.974Z,3.17
2018-09-20T11:38:27.259Z,3.00
2018-09-20T11:40:55.562Z,2.70
2018-09-20T11:43:23.985Z,2.60
2018-09-20T11:45:52.271Z,3.20
2018-09-20T11:48:20.643Z,3.10
2018-09-20T11:50:48.937Z,2.97
2018-09-20T11:53:17.300Z,3.40
2018-09-20T11:55:45.614Z,3.27
2018-09-20T11:58:13.923Z,2.80
2018-09-20T12:00:43.267Z,2.97
2018-09-20T12:03:11.530Z,3.00
2018-09-20T12:05:39.827Z,3.23
2018-09-20T12:08:08.264Z,3.40
2018-09-20T12:10:36.580Z,2.90
2018-09-20T12:13:04.870Z,3.33
2018-09-20T12:15:33.268Z,3.00
2018-09-20T12:18:01.536Z,2.83
2018-09-20T12:20:29.823Z,2.90
2018-09-20T12:22:58.098Z,2.83
2018-09-20T12:25:26.410Z,2.93
2018-09-20T12:27:54.692Z,3.03
2018-09-20T12:30:23.056Z,2.70
2018-09-20T12:32:51.452Z,2.67
2018-09-20T12:35:19.686Z,2.67
2018-09-20T12:37:48.100Z,2.17
2018-09-20T12:40:16.545Z,2.20
2018-09-20T12:42:45.430Z,2.23
2018-09-20T12:45:13.764Z,2.60
2018-09-20T12:47:42.067Z,2.83
2018-09-20T12:50:10.387Z,2.70
2018-09-20T12:52:38.724Z,2.53
2018-09-20T12:55:07.190Z,2.80
2018-09-20T12:57:35.499Z,2.57
2018-09-20T13:00:04.016Z,2.57
2018-09-20T13:02:32.293Z,2.70
2018-09-20T13:05:00.581Z,2.70
2018-09-20T13:07:29.307Z,2.40
2018-09-20T13:09:57.631Z,2.60
2018-09-20T13:12:25.980Z,2.50
2018-09-20T13:14:54.323Z,2.67
2018-09-20T13:17:22.632Z,2.60
2018-09-20T13:19:51.008Z,2.83
2018-09-20T13:22:19.291Z,2.80
2018-09-20T13:24:47.618Z,2.70
2018-09-20T13:27:15.917Z,2.70
2018-09-20T13:29:44.202Z,2.87
2018-09-20T13:32:12.499Z,2.70
2018-09-20T13:34:40.846Z,2.97
2018-09-20T13:37:09.251Z,3.10
2018-09-20T13:39:37.653Z,2.70
2018-09-20T13:42:06.004Z,2.70
2018-09-20T13:44:34.437Z,3.00
2018-09-20T13:47:02.887Z,2.60
2018-09-20T13:49:31.218Z,3.43
2018-09-20T13:51:59.532Z,2.90
2018-09-20T13:54:29.479Z,2.80
2018-09-20T13:56:57.840Z,2.73
2018-09-20T13:59:26.301Z,2.70
2018-09-20T14:01:54.666Z,2.70
2018-09-20T14:04:23.229Z,2.87
2018-09-20T14:06:51.576Z,2.40
2018-09-20T14:09:19.976Z,2.40
2018-09-20T14:11:48.295Z,2.93
2018-09-20T14:14:16.710Z,3.00
2018-09-20T14:16:44.996Z,2.73
2018-09-20T14:19:13.421Z,2.90
2018-09-20T14:21:41.820Z,2.80
2018-09-20T14:24:10.156Z,3.03
2018-09-20T14:26:39.686Z,3.03
2018-09-20T14:29:08.237Z,2.60
2018-09-20T14:31:36.631Z,2.67
2018-09-20T14:34:05.024Z,2.90
2018-09-20T14:36:33.385Z,3.07
2018-09-20T14:39:01.811Z,3.43
2018-09-20T14:41:30.246Z,2.80
2018-09-20T14:43:59.652Z,2.70
2018-09-20T14:46:28.111Z,2.77
2018-09-20T14:48:56.629Z,2.70
2018-09-20T14:51:25.057Z,2.77
2018-09-20T14:53:53.376Z,2.60
2018-09-20T14:56:21.699Z,2.50
2018-09-20T14:58:50.819Z,2.70
2018-09-20T15:01:20.406Z,2.43
2018-09-20T15:03:48.830Z,2.60
2018-09-20T15:06:17.314Z,2.67
2018-09-20T15:08:45.679Z,2.83
2018-09-20T15:11:14.099Z,2.67
2018-09-20T15:13:42.427Z,2.60
2018-09-20T15:16:10.770Z,2.50
2018-09-20T15:18:39.082Z,2.30
2018-09-20T15:21:07.507Z,2.43
2018-09-20T15:23:35.832Z,2.53
2018-09-20T15:26:04.199Z,2.40
2018-09-20T15:28:32.519Z,2.53
2018-09-20T15:31:00.827Z,2.30
2018-09-20T15:33:29.290Z,2.50
2018-09-20T15:35:57.622Z,2.73
2018-09-20T15:38:26.103Z,2.50
2018-09-20T15:40:54.408Z,2.40
2018-09-20T15:43:22.774Z,2.60
2018-09-20T15:45:51.125Z,2.70
2018-09-20T15:48:19.458Z,2.40
2018-09-20T15:50:47.767Z,2.53
2018-09-20T15:53:16.078Z,2.23
2018-09-20T15:55:44.398Z,3.00
2018-09-20T15:58:12.742Z,3.00
2018-09-20T16:00:41.035Z,2.90
2018-09-20T16:03:09.326Z,2.67
2018-09-20T16:05:37.735Z,2.70
2018-09-20T16:08:06.103Z,2.63
2018-09-20T16:10:34.385Z,3.27
2018-09-20T16:13:02.708Z,3.00
2018-09-20T16:15:31.010Z,2.83
2018-09-20T16:17:59.341Z,2.90
2018-09-20T16:20:27.614Z,2.70
2018-09-20T16:22:55.986Z,3.10
2018-09-20T16:25:24.335Z,3.17
2018-09-20T16:27:54.603Z,2.80
2018-09-20T16:30:30.565Z,2.63
2018-09-20T16:34:18.495Z,2.60
2018-09-20T16:36:59.758Z,2.60
2018-09-20T16:39:31.535Z,2.47
2018-09-20T16:42:04.235Z,3.40
2018-09-20T16:44:33.463Z,3.17
2018-09-20T16:47:03.685Z,3.37
2018-09-20T16:49:33.178Z,3.20
2018-09-20T16:52:01.611Z,3.23
2018-09-20T16:54:29.896Z,3.40
2018-09-20T16:56:58.220Z,3.20
2018-09-20T16:59:26.546Z,3.37
2018-09-20T17:01:54.953Z,3.13
2018-09-20T17:04:23.593Z,3.27
2018-09-20T17:06:52.019Z,2.90
2018-09-20T17:09:20.334Z,3.50
2018-09-20T17:11:48.745Z,3.07
2018-09-20T17:14:17.091Z,3.10
2018-09-20T17:16:45.479Z,2.77
2018-09-20T17:19:13.720Z,3.10
2018-09-20T17:21:42.015Z,3.50
2018-09-20T17:24:10.307Z,3.60
2018-09-20T17:26:38.600Z,3.20
2018-09-20T17:29:06.895Z,3.20
2018-09-20T17:31:35.196Z,3.47
2018-09-20T17:34:03.516Z,3.40
2018-09-20T17:37:06.631Z,3.60
2018-09-20T17:39:36.003Z,3.20
2018-09-20T17:42:04.469Z,3.30
2018-09-20T17:44:33.135Z,3.37
2018-09-20T17:47:01.502Z,3.10
2018-09-20T17:49:29.842Z,3.60
2018-09-20T17:51:58.452Z,3.40
2018-09-20T17:54:27.651Z,3.30
2018-09-20T17:56:57.158Z,3.67
2018-09-20T17:59:25.438Z,3.00
2018-09-20T18:01:53.775Z,3.40
2018-09-20T18:04:22.101Z,3.03
2018-09-20T18:06:50.406Z,3.33
2018-09-20T18:09:18.723Z,3.30
2018-09-20T18:11:47.071Z,3.43
2018-09-20T18:14:15.371Z,3.33
2018-09-20T18:16:43.678Z,3.43
2018-09-20T18:19:11.991Z,3.30
2018-09-20T18:21:40.711Z,3.67
2018-09-20T18:24:09.063Z,3.40
2018-09-20T18:26:37.361Z,3.30
2018-09-20T18:29:05.668Z,3.30
2018-09-20T18:31:33.951Z,3.77
2018-09-20T18:34:02.335Z,3.37
2018-09-20T18:36:30.671Z,3.87
2018-09-20T18:38:58.954Z,4.07
2018-09-20T18:41:27.270Z,4.43
2018-09-20T18:43:55.635Z,3.77
2018-09-20T18:46:24.054Z,3.47
2018-09-20T18:48:52.433Z,3.90
2018-09-20T18:51:20.738Z,4.47
2018-09-20T18:53:49.035Z,4.43
2018-09-20T18:56:17.352Z,3.97
2018-09-20T18:58:45.808Z,4.47
2018-09-20T19:01:14.163Z,5.00
2018-09-20T19:03:42.492Z,5.27
2018-09-20T19:06:10.837Z,5.30
2018-09-20T19:08:39.170Z,4.60
2018-09-20T19:11:07.493Z,4.30
2018-09-20T19:13:35.899Z,4.83
2018-09-20T19:16:04.318Z,5.03
2018-09-20T19:18:32.700Z,5.23
2018-09-20T19:21:01.024Z,4.97
2018-09-20T19:23:29.324Z,4.80
2018-09-20T19:25:57.633Z,4.80
2018-09-20T19:28:26.280Z,4.60
2018-09-20T19:30:54.638Z,4.57
2018-09-20T19:33:22.964Z,4.53
2018-09-20T19:35:51.320Z,4.57
2018-09-20T19:38:19.877Z,4.73
2018-09-20T19:40:48.279Z,4.73
2018-09-20T19:43:16.693Z,4.97
2018-09-20T19:45:45.187Z,5.33
2018-09-20T19:48:13.522Z,5.13
2018-09-20T19:50:43.144Z,4.70
2018-09-20T19:53:12.399Z,5.30
2018-09-20T19:55:41.272Z,5.30
2018-09-20T19:58:10.818Z,5.37
2018-09-20T20:00:39.204Z,5.37
2018-09-20T20:03:07.555Z,5.73
2018-09-20T20:05:36.587Z,6.20
2018-09-20T20:08:06.128Z,7.23
2018-09-20T20:10:34.419Z,7.43
2018-09-20T20:13:02.737Z,6.60
2018-09-20T20:15:31.035Z,6.47
2018-09-20T20:17:59.346Z,5.70
2018-09-20T20:20:27.658Z,6.40
2018-09-20T20:22:55.991Z,5.33
2018-09-20T20:25:24.290Z,6.17
2018-09-20T20:27:52.619Z,5.47
2018-09-20T20:30:20.946Z,5.90
2018-09-20T20:32:49.331Z,5.93
2018-09-20T20:35:17.686Z,5.77
2018-09-20T20:37:46.082Z,5.63
2018-09-20T20:40:14.564Z,5.73
2018-09-20T20:42:43.090Z,5.90
2018-09-20T20:45:11.486Z,5.60
2018-09-20T20:47:39.825Z,5.93
2018-09-20T20:50:08.131Z,5.20
2018-09-20T20:52:36.507Z,5.20
2018-09-20T20:55:04.851Z,5.73
2018-09-20T20:57:33.250Z,5.57
2018-09-20T21:00:03.439Z,5.87
2018-09-20T21:02:31.735Z,6.50
2018-09-20T21:05:00.044Z,5.63
2018-09-20T21:07:28.371Z,6.40
2018-09-20T21:09:56.666Z,5.83
2018-09-20T21:12:25.011Z,5.63
2018-09-20T21:14:53.299Z,6.33
2018-09-20T21:17:21.664Z,6.47
2018-09-20T21:19:49.915Z,7.57
2018-09-20T21:22:18.214Z,6.43
2018-09-20T21:24:46.542Z,6.83
2018-09-20T21:27:14.888Z,7.07
2018-09-20T21:29:43.195Z,7.00
2018-09-20T21:32:11.507Z,6.77
2018-09-20T21:34:40.058Z,7.47
2018-09-20T21:37:08.341Z,6.87
2018-09-20T21:39:36.646Z,7.17
2018-09-20T21:42:04.926Z,6.90
2018-09-20T21:44:33.244Z,6.93
2018-09-20T21:47:01.555Z,6.90
2018-09-20T21:49:29.875Z,7.57
2018-09-20T21:51:58.155Z,7.10
2018-09-20T21:54:26.453Z,6.97
2018-09-20T21:56:54.738Z,7.53
2018-09-20T21:59:23.031Z,7.53
2018-09-20T22:01:56.704Z,7.70
2018-09-20T22:04:25.020Z,8.07
2018-09-20T22:06:53.339Z,8.07
2018-09-20T22:09:21.639Z,7.77
2018-09-20T22:11:49.912Z,7.63
2018-09-20T22:14:18.198Z,8.17
2018-09-20T22:16:46.486Z,8.57
2018-09-20T22:19:14.776Z,8.67
2018-09-20T22:21:43.080Z,9.40
2018-09-20T22:24:11.359Z,9.97
2018-09-20T22:26:39.675Z,10.07
2018-09-20T22:29:07.960Z,9.23
2018-09-20T22:31:36.241Z,9.67
2018-09-20T22:34:04.547Z,9.63
2018-09-20T22:36:32.892Z,9.47
2018-09-20T22:39:01.238Z,8.93
2018-09-20T22:41:29.556Z,8.57
2018-09-20T22:43:57.884Z,9.33
2018-09-20T22:46:26.186Z,9.97
2018-09-20T22:48:54.504Z,10.00
2018-09-20T22:51:22.801Z,9.03
2018-09-20T22:53:51.091Z,9.37
2018-09-20T22:56:19.386Z,8.67
2018-09-20T22:58:47.678Z,8.63
2018-09-20T23:01:16.039Z,7.03
2018-09-20T23:03:44.699Z,6.67
2018-09-20T23:06:13.028Z,7.63
2018-09-20T23:08:41.322Z,9.30
2018-09-20T23:11:09.625Z,9.30
2018-09-20T23:13:37.921Z,7.83
2018-09-20T23:16:06.244Z,7.67
2018-09-20T23:18:34.527Z,7.20
2018-09-20T23:21:02.871Z,7.50
2018-09-20T23:23:31.224Z,7.93
2018-09-20T23:25:59.519Z,7.17
2018-09-20T23:28:27.810Z,6.77
2018-09-20T23:30:56.105Z,7.53
2018-09-20T23:33:24.396Z,7.27
2018-09-20T23:35:52.738Z,7.80
2018-09-20T23:38:21.022Z,6.53
2018-09-20T23:40:49.315Z,6.37
2018-09-20T23:43:17.602Z,6.43
2018-09-20T23:45:45.963Z,7.20
2018-09-20T23:48:14.267Z,6.67
2018-09-20T23:50:42.611Z,7.20
2018-09-20T23:53:10.920Z,7.07
2018-09-20T23:55:39.233Z,5.93
2018-09-20T23:58:07.510Z,6.43
